createdAt,value
2023-01-27T00:03:44.969Z,59.12
2023-01-27T00:07:47.042Z,59.03
2023-01-27T00:11:59.692Z,58.92
2023-01-27T00:16:02.639Z,58.33
2023-01-27T00:20:03.964Z,58.20
2023-01-27T00:24:16.784Z,58.64
2023-01-27T00:28:22.922Z,58.32
2023-01-27T00:32:38.132Z,58.11
2023-01-27T00:36:39.916Z,57.86
2023-01-27T00:40:40.050Z,57.71
2023-01-27T00:45:00.184Z,57.98
2023-01-27T00:49:03.038Z,58.05
2023-01-27T00:53:03.709Z,57.74
2023-01-27T00:57:04.432Z,57.70
2023-01-27T01:01:08.031Z,57.84
2023-01-27T01:05:11.834Z,58.01
2023-01-27T01:09:11.858Z,57.95
2023-01-27T01:13:12.376Z,58.16
2023-01-27T01:17:12.517Z,57.96
2023-01-27T01:21:16.298Z,57.67
2023-01-27T01:25:16.622Z,57.88
2023-01-27T01:29:16.921Z,57.83
2023-01-27T01:33:17.085Z,57.31
2023-01-27T01:37:19.883Z,57.94
2023-01-27T01:41:23.002Z,57.35
2023-01-27T01:45:50.558Z,57.37
2023-01-27T01:49:51.227Z,57.46
2023-01-27T01:54:00.876Z,57.69
2023-01-27T01:58:01.353Z,57.62
2023-01-27T02:02:07.779Z,57.75
2023-01-27T02:06:09.347Z,57.95
2023-01-27T02:10:14.021Z,57.64
2023-01-27T02:14:18.945Z,57.95
2023-01-27T02:18:22.278Z,57.84
2023-01-27T02:22:31.556Z,57.82
2023-01-27T02:26:39.948Z,57.66
2023-01-27T02:30:40.195Z,58.23
2023-01-27T02:34:41.420Z,57.94
2023-01-27T02:38:49.335Z,57.87
2023-01-27T02:42:52.795Z,58.15
2023-01-27T02:46:53.171Z,58.07
2023-01-27T02:50:56.172Z,57.68
2023-01-27T02:54:56.280Z,57.63
2023-01-27T02:58:59.179Z,57.63
2023-01-27T03:03:07.727Z,57.45
2023-01-27T03:07:07.940Z,57.59
2023-01-27T03:11:08.890Z,57.49
2023-01-27T03:15:26.019Z,57.28
2023-01-27T03:19:26.882Z,57.35
2023-01-27T03:23:27.843Z,57.36
2023-01-27T03:27:28.151Z,57.60
2023-01-27T03:31:54.770Z,56.93
2023-01-27T03:36:07.680Z,57.07
2023-01-27T03:40:24.713Z,57.10
2023-01-27T03:44:37.324Z,57.27
2023-01-27T03:48:40.583Z,57.13
2023-01-27T03:52:40.698Z,57.18
2023-01-27T03:56:40.713Z,57.27
2023-01-27T04:00:40.767Z,57.32
2023-01-27T04:04:55.876Z,57.13
2023-01-27T04:08:56.485Z,57.25
2023-01-27T04:12:56.566Z,57.33
2023-01-27T04:16:59.772Z,56.95
2023-01-27T04:21:02.404Z,57.32
2023-01-27T04:25:02.682Z,57.18
2023-01-27T04:29:03.424Z,56.87
2023-01-27T04:33:05.464Z,56.81
2023-01-27T04:37:09.872Z,56.95
2023-01-27T04:41:09.931Z,57.21
2023-01-27T04:45:12.637Z,57.05
2023-01-27T04:49:13.900Z,57.27
2023-01-27T04:53:16.653Z,57.18
2023-01-27T04:57:16.777Z,57.06
2023-01-27T05:01:16.810Z,56.89
2023-01-27T05:05:16.944Z,56.82
2023-01-27T05:09:20.079Z,56.75
2023-01-27T05:13:20.097Z,57.01
2023-01-27T05:17:20.298Z,56.32
2023-01-27T05:21:23.265Z,57.06
2023-01-27T05:25:25.837Z,57.12
2023-01-27T05:29:26.468Z,57.44
2023-01-27T05:33:26.538Z,57.82
2023-01-27T05:37:26.669Z,57.91
2023-01-27T05:41:31.538Z,56.75
2023-01-27T05:45:31.581Z,57.52
2023-01-27T05:49:31.957Z,57.27
2023-01-27T05:53:32.146Z,57.07
2023-01-27T05:57:34.806Z,57.11
2023-01-27T06:01:37.761Z,56.94
2023-01-27T06:05:38.351Z,56.89
2023-01-27T06:09:38.934Z,57.15
2023-01-27T06:13:41.910Z,56.88
2023-01-27T06:17:42.178Z,57.87
2023-01-27T06:21:42.217Z,57.66
2023-01-27T06:25:44.763Z,57.15
2023-01-27T06:29:47.638Z,57.30
2023-01-27T06:33:48.345Z,57.13
2023-01-27T06:37:50.086Z,56.93
2023-01-27T06:41:52.200Z,57.08
2023-01-27T06:45:57.684Z,57.37
2023-01-27T06:49:57.878Z,57.04
2023-01-27T06:53:57.896Z,56.89
2023-01-27T06:57:58.178Z,56.98
2023-01-27T07:02:01.991Z,56.66
2023-01-27T07:06:02.202Z,56.76
2023-01-27T07:10:02.310Z,57.10
2023-01-27T07:14:03.118Z,57.06
2023-01-27T07:18:07.432Z,57.10
2023-01-27T07:22:08.181Z,56.91
2023-01-27T07:26:23.321Z,56.55
2023-01-27T07:30:25.006Z,56.44
2023-01-27T07:34:27.905Z,55.83
2023-01-27T07:38:27.988Z,55.97
2023-01-27T07:42:28.175Z,56.18
2023-01-27T07:46:28.438Z,55.94
2023-01-27T07:50:31.245Z,55.40
2023-01-27T07:54:39.311Z,55.44
2023-01-27T07:58:39.397Z,55.73
2023-01-27T08:02:39.468Z,54.91
2023-01-27T08:06:43.666Z,54.43
2023-01-27T08:10:48.282Z,54.47
2023-01-27T08:15:40.770Z,54.17
2023-01-27T08:19:40.849Z,54.43
2023-01-27T08:23:43.641Z,54.05
2023-01-27T08:27:43.749Z,54.04
2023-01-27T08:31:44.385Z,53.44
2023-01-27T08:35:45.443Z,53.52
2023-01-27T08:39:48.109Z,53.32
2023-01-27T08:43:49.405Z,53.11
2023-01-27T08:47:49.555Z,52.74
2023-01-27T08:51:49.680Z,52.51
2023-01-27T08:55:54.675Z,52.66
2023-01-27T08:59:58.198Z,51.99
2023-01-27T09:08:35.036Z,52.16
2023-01-27T09:12:37.732Z,50.87
2023-01-27T09:16:37.975Z,51.09
2023-01-27T09:20:38.398Z,50.38
2023-01-27T09:24:40.400Z,49.45
2023-01-27T09:28:43.184Z,49.55
2023-01-27T09:32:44.228Z,49.39
2023-01-27T09:36:51.041Z,49.17
2023-01-27T09:41:26.677Z,48.52
2023-01-27T09:46:10.052Z,48.69
2023-01-27T09:50:42.527Z,49.00
2023-01-27T09:55:00.547Z,48.31
2023-01-27T09:59:28.499Z,48.51
2023-01-27T10:03:59.250Z,48.66
2023-01-27T10:08:24.807Z,48.02
2023-01-27T10:12:47.834Z,49.04
2023-01-27T10:17:21.579Z,48.96
2023-01-27T10:21:37.012Z,48.59
2023-01-27T10:25:55.490Z,49.55
2023-01-27T10:30:02.696Z,49.05
2023-01-27T10:34:21.611Z,48.97
2023-01-27T10:38:42.056Z,48.44
2023-01-27T10:42:52.178Z,47.83
2023-01-27T10:47:04.298Z,48.37
2023-01-27T10:51:11.669Z,48.38
2023-01-27T10:55:25.668Z,47.31
2023-01-27T10:59:37.211Z,46.92
2023-01-27T11:03:45.046Z,46.06
2023-01-27T11:08:05.710Z,46.36
2023-01-27T11:12:14.649Z,47.38
2023-01-27T11:16:20.415Z,48.23
2023-01-27T11:20:35.159Z,48.05
2023-01-27T11:29:35.316Z,48.96
2023-01-27T11:33:58.218Z,48.39
2023-01-27T11:38:14.922Z,49.44
2023-01-27T11:42:17.362Z,49.74
2023-01-27T11:46:27.456Z,49.81
2023-01-27T11:50:33.490Z,49.53
2023-01-27T11:54:39.451Z,48.92
2023-01-27T11:58:46.713Z,49.45
2023-01-27T12:03:00.940Z,49.13
2023-01-27T12:07:08.395Z,48.63
2023-01-27T12:11:36.805Z,48.13
2023-01-27T12:15:40.239Z,47.30
2023-01-27T12:19:52.091Z,46.29
2023-01-27T12:23:59.310Z,46.03
2023-01-27T12:28:05.591Z,46.51
2023-01-27T12:32:22.115Z,46.25
2023-01-27T12:36:29.148Z,45.64
2023-01-27T12:40:32.370Z,45.41
2023-01-27T12:45:22.195Z,46.34
2023-01-27T12:49:28.661Z,47.60
2023-01-27T12:53:31.547Z,47.80
2023-01-27T12:57:35.891Z,47.79
2023-01-27T13:01:41.493Z,47.94
2023-01-27T13:05:46.136Z,46.71
2023-01-27T13:09:58.741Z,46.34
2023-01-27T13:14:01.365Z,46.22
2023-01-27T13:18:03.594Z,46.94
2023-01-27T13:22:06.885Z,47.08
2023-01-27T13:26:19.149Z,47.21
2023-01-27T13:30:30.420Z,47.07
2023-01-27T13:34:53.304Z,47.00
2023-01-27T13:39:03.218Z,47.26
2023-01-27T13:43:15.175Z,47.94
2023-01-27T13:47:22.187Z,48.01
2023-01-27T13:51:26.536Z,48.44
2023-01-27T13:55:50.934Z,48.62
2023-01-27T14:00:10.793Z,48.53
2023-01-27T14:09:20.314Z,49.14
2023-01-27T14:13:55.064Z,49.22
2023-01-27T14:18:06.509Z,49.48
2023-01-27T14:22:19.461Z,49.68
2023-01-27T14:26:43.058Z,50.18
2023-01-27T14:30:47.131Z,50.29
2023-01-27T14:35:10.028Z,50.77
2023-01-27T14:39:23.801Z,50.76
2023-01-27T14:43:39.537Z,51.20
2023-01-27T14:47:54.458Z,50.59
2023-01-27T14:52:05.395Z,50.55
2023-01-27T14:56:15.503Z,50.53
2023-01-27T15:00:33.344Z,50.22
2023-01-27T15:04:54.018Z,50.51
2023-01-27T15:09:09.798Z,50.28
2023-01-27T15:13:40.058Z,50.42
2023-01-27T15:18:03.968Z,50.88
2023-01-27T15:22:42.074Z,50.96
2023-01-27T15:26:46.121Z,51.10
2023-01-27T15:31:23.029Z,51.06
2023-01-27T15:35:41.790Z,51.13
2023-01-27T15:40:05.603Z,51.33
2023-01-27T15:44:19.101Z,51.83
2023-01-27T15:48:27.381Z,51.72
2023-01-27T15:52:34.616Z,51.71
2023-01-27T15:56:50.455Z,51.72
2023-01-27T16:00:59.255Z,52.52
2023-01-27T16:05:18.284Z,52.23
2023-01-27T16:09:36.038Z,52.22
2023-01-27T16:13:38.780Z,52.35
2023-01-27T16:18:02.644Z,52.47
2023-01-27T16:22:07.557Z,52.32
2023-01-27T16:26:25.467Z,52.55
2023-01-27T16:30:30.589Z,52.87
2023-01-27T16:34:40.974Z,53.19
2023-01-27T16:38:45.865Z,52.87
2023-01-27T16:43:04.908Z,53.35
2023-01-27T16:47:16.878Z,53.34
2023-01-27T16:51:26.039Z,53.84
2023-01-27T16:55:26.965Z,53.93
2023-01-27T16:59:31.128Z,53.39
2023-01-27T17:03:39.857Z,53.32
2023-01-27T17:07:42.465Z,53.62
2023-01-27T17:11:46.052Z,53.65
2023-01-27T17:15:47.239Z,53.36
2023-01-27T17:19:51.562Z,53.50
2023-01-27T17:23:54.716Z,53.32
2023-01-27T17:27:55.316Z,53.29
2023-01-27T17:31:55.635Z,53.79
2023-01-27T17:36:00.062Z,53.45
2023-01-27T17:40:05.497Z,53.74
2023-01-27T17:44:14.014Z,53.89
2023-01-27T17:48:16.049Z,53.49
2023-01-27T17:52:23.865Z,53.68
2023-01-27T17:56:32.355Z,53.94
2023-01-27T18:00:38.365Z,54.03
2023-01-27T18:04:45.037Z,53.85
2023-01-27T18:08:54.919Z,54.08
2023-01-27T18:12:59.080Z,53.72
2023-01-27T18:17:05.545Z,54.10
2023-01-27T18:21:15.756Z,53.93
2023-01-27T18:25:21.776Z,53.86
2023-01-27T18:29:30.341Z,53.98
2023-01-27T18:33:30.620Z,53.53
2023-01-27T18:37:34.417Z,53.97
2023-01-27T18:41:38.174Z,54.13
2023-01-27T18:45:41.040Z,53.84
2023-01-27T18:49:41.145Z,54.17
2023-01-27T18:53:41.199Z,54.50
2023-01-27T18:57:41.581Z,54.79
2023-01-27T19:01:44.435Z,54.53
2023-01-27T19:05:44.632Z,55.11
2023-01-27T19:09:45.753Z,54.79
2023-01-27T19:13:46.460Z,54.37
2023-01-27T19:17:50.619Z,54.31
2023-01-27T19:21:50.787Z,53.89
2023-01-27T19:25:55.468Z,53.96
2023-01-27T19:29:55.779Z,53.99
2023-01-27T19:33:58.569Z,53.64
2023-01-27T19:38:00.401Z,53.99
2023-01-27T19:42:00.511Z,53.99
2023-01-27T19:46:00.952Z,53.94
2023-01-27T19:50:05.179Z,54.21
2023-01-27T19:54:05.325Z,54.19
2023-01-27T19:58:06.018Z,54.42
2023-01-27T20:02:06.253Z,54.14
2023-01-27T20:06:18.550Z,54.39
2023-01-27T20:10:22.926Z,54.22
2023-01-27T20:14:25.872Z,54.23
2023-01-27T20:18:26.867Z,54.34
2023-01-27T20:22:29.911Z,54.18
2023-01-27T20:26:31.441Z,54.22
2023-01-27T20:30:36.456Z,53.77
2023-01-27T20:34:38.737Z,53.81
2023-01-27T20:38:42.293Z,53.46
2023-01-27T20:42:42.511Z,54.15
2023-01-27T20:46:43.000Z,54.48
2023-01-27T20:50:43.015Z,55.28
2023-01-27T20:54:45.809Z,56.01
2023-01-27T20:58:46.480Z,56.33
2023-01-27T21:02:46.790Z,56.80
2023-01-27T21:06:46.937Z,57.12
2023-01-27T21:10:49.683Z,57.23
2023-01-27T21:14:49.919Z,57.65
2023-01-27T21:18:50.046Z,57.50
2023-01-27T21:22:50.380Z,57.64
2023-01-27T21:26:54.490Z,57.68
2023-01-27T21:30:54.575Z,57.75
2023-01-27T21:34:56.595Z,58.04
2023-01-27T21:38:58.029Z,58.06
2023-01-27T21:43:13.067Z,57.96
2023-01-27T21:47:15.951Z,57.75
2023-01-27T21:51:16.437Z,58.02
2023-01-27T21:55:20.638Z,57.70
